Time;durP1;ratioP1;P1;durP2;ratioP2;P2;SDS_P1;SDS_P2;PMS_P1;PMS_P2;Temp;Humidity;BMP_temperature;BMP_pressure;BME280_temperature;BME280_humidity;BME280_pressure;Samples;Min_cycle;Max_cycle;Signal;HPM_P1;HPM_P2
2024/04/22 00:02:04;;;;;;;2.17;1.90;;;2.90;99.90;;;;;;5403978;26;20011;-49
2024/04/22 00:04:30;;;;;;;1.95;1.67;;;2.90;99.90;;;;;;5395087;26;20661;-48
2024/04/22 00:06:55;;;;;;;3.55;1.73;;;2.90;99.90;;;;;;5398445;26;20022;-49
2024/04/22 00:09:25;;;;;;;4.45;2.08;;;2.90;99.90;;;;;;5402598;26;20478;-48
2024/04/22 00:11:51;;;;;;;4.30;2.22;;;2.90;99.90;;;;;;5404154;26;20004;-49
2024/04/22 00:14:17;;;;;;;2.50;2.30;;;2.90;99.90;;;;;;5400462;26;20011;-51
2024/04/22 00:20:05;;;;;;;2.35;1.90;;;2.80;99.90;;;;;;5403535;26;20443;-49
2024/04/22 00:22:33;;;;;;;2.25;1.58;;;2.90;99.90;;;;;;5400785;26;20003;-52
2024/04/22 00:25:04;;;;;;;3.40;2.35;;;2.90;99.90;;;;;;5396353;26;19995;-52
2024/04/22 00:27:29;;;;;;;2.75;1.73;;;2.90;99.90;;;;;;5403892;26;20011;-49
2024/04/22 00:29:55;;;;;;;5.55;2.38;;;2.90;99.90;;;;;;5403001;26;20015;-49
2024/04/22 00:32:20;;;;;;;4.53;2.25;;;2.90;99.90;;;;;;5403046;26;20121;-48
2024/04/22 00:34:46;;;;;;;3.28;2.13;;;2.90;99.90;;;;;;5401259;26;20027;-50
2024/04/22 00:37:12;;;;;;;4.18;2.20;;;2.80;99.90;;;;;;5404381;26;19999;-49
2024/04/22 00:39:37;;;;;;;6.53;2.58;;;2.80;99.90;;;;;;5405252;26;20012;-48
2024/04/22 00:42:05;;;;;;;2.47;2.00;;;2.80;99.90;;;;;;5433866;26;20418;-49
2024/04/22 00:44:35;;;;;;;5.10;2.50;;;2.80;99.90;;;;;;5405894;26;20044;-48
2024/04/22 00:47:04;;;;;;;4.35;1.80;;;2.80;99.90;;;;;;5402895;26;20073;-50
2024/04/22 00:49:30;;;;;;;4.95;2.10;;;2.80;99.90;;;;;;5407030;26;20711;-49
2024/04/22 00:51:56;;;;;;;3.08;2.03;;;2.80;99.90;;;;;;5406494;26;20016;-52
2024/04/22 00:54:23;;;;;;;2.13;1.92;;;2.80;99.90;;;;;;5403006;26;20869;-50
2024/04/22 00:56:50;;;;;;;7.20;2.33;;;2.80;99.90;;;;;;5401866;26;20020;-49
2024/04/22 00:59:16;;;;;;;4.57;2.28;;;2.70;99.90;;;;;;5407188;26;21602;-49
2024/04/22 01:05:57;;;;;;;5.15;2.22;;;2.70;99.90;;;;;;5401602;26;20009;-48
2024/04/22 01:08:24;;;;;;;3.78;1.92;;;2.70;99.90;;;;;;5402798;26;20027;-50
2024/04/22 01:10:51;;;;;;;2.17;1.98;;;2.70;99.90;;;;;;5405406;26;20023;-49
2024/04/22 01:13:18;;;;;;;3.30;2.67;;;2.70;99.90;;;;;;5404457;26;19992;-50
2024/04/22 01:15:45;;;;;;;2.13;1.88;;;2.70;99.90;;;;;;5404386;26;20007;-50
2024/04/22 01:18:18;;;;;;;4.18;2.47;;;2.60;99.90;;;;;;5405782;26;19999;-48
2024/04/22 01:20:46;;;;;;;2.88;2.00;;;2.60;99.90;;;;;;5402582;26;20447;-49
2024/04/22 01:23:12;;;;;;;2.47;2.28;;;2.60;99.90;;;;;;5399466;26;20008;-48
2024/04/22 01:25:44;;;;;;;2.65;2.03;;;2.60;99.90;;;;;;5404358;26;20458;-49
2024/04/22 01:28:10;;;;;;;2.72;2.10;;;2.60;99.90;;;;;;5401326;26;20077;-48
2024/04/22 01:30:36;;;;;;;3.33;1.83;;;2.50;99.90;;;;;;5405505;26;20018;-49
2024/04/22 01:33:01;;;;;;;3.38;2.15;;;2.50;99.90;;;;;;5400355;26;20003;-51
2024/04/22 01:35:27;;;;;;;2.42;2.13;;;2.50;99.90;;;;;;5400622;26;20007;-48
2024/04/22 01:37:53;;;;;;;3.55;2.20;;;2.50;99.90;;;;;;5402732;26;20003;-50
2024/04/22 01:40:19;;;;;;;3.55;2.05;;;2.50;99.90;;;;;;5410676;26;20031;-50
2024/04/22 01:42:46;;;;;;;3.42;2.08;;;2.50;99.90;;;;;;5402555;26;20474;-49
2024/04/22 01:45:12;;;;;;;2.88;1.90;;;2.50;99.90;;;;;;5402827;26;20000;-51
2024/04/22 01:47:39;;;;;;;2.20;1.80;;;2.40;99.90;;;;;;5403315;26;20003;-51
2024/04/22 01:50:07;;;;;;;4.07;2.08;;;2.50;99.90;;;;;;5398674;26;20014;-48
2024/04/22 01:52:32;;;;;;;2.97;2.25;;;2.40;99.90;;;;;;5401346;26;19991;-52
2024/04/22 01:54:59;;;;;;;2.20;2.00;;;2.40;99.90;;;;;;5406086;26;20113;-49
2024/04/22 01:57:25;;;;;;;3.08;1.63;;;2.40;99.90;;;;;;5408125;26;19996;-51
2024/04/22 01:59:50;;;;;;;4.50;2.20;;;2.40;99.90;;;;;;5404098;26;20554;-51
2024/04/22 02:02:16;;;;;;;3.45;2.38;;;2.40;99.90;;;;;;5401792;26;20348;-49
2024/04/22 02:04:42;;;;;;;2.15;1.95;;;2.40;99.90;;;;;;5403765;26;20349;-49
2024/04/22 02:07:08;;;;;;;4.82;2.03;;;2.40;99.90;;;;;;5404245;26;20240;-49
2024/04/22 02:09:33;;;;;;;1.65;1.55;;;2.40;99.90;;;;;;5404542;26;20003;-51
2024/04/22 02:11:59;;;;;;;2.15;1.90;;;2.40;99.90;;;;;;5402067;26;20003;-51
2024/04/22 02:14:27;;;;;;;3.67;2.10;;;2.40;99.90;;;;;;5404364;26;20543;-49
2024/04/22 02:16:53;;;;;;;2.00;1.73;;;2.40;99.90;;;;;;5404802;26;20084;-50
2024/04/22 02:19:18;;;;;;;3.38;2.17;;;2.40;99.90;;;;;;5401269;26;20382;-50
2024/04/22 02:21:44;;;;;;;3.03;1.65;;;2.40;99.90;;;;;;5399296;26;19995;-49
2024/04/22 02:24:10;;;;;;;4.95;1.90;;;2.40;99.90;;;;;;5400411;26;20015;-52
2024/04/22 02:26:35;;;;;;;3.83;2.20;;;2.40;99.90;;;;;;5407654;26;20010;-48
2024/04/22 02:29:01;;;;;;;2.13;1.77;;;2.40;99.90;;;;;;5400735;26;20013;-49
2024/04/22 02:31:26;;;;;;;3.58;1.60;;;2.40;99.90;;;;;;5402600;26;19996;-48
2024/04/22 02:33:52;;;;;;;3.22;2.33;;;2.40;99.90;;;;;;5402553;26;20014;-48
2024/04/22 02:36:18;;;;;;;2.40;1.83;;;2.40;99.90;;;;;;5402294;26;19992;-48
2024/04/22 02:38:44;;;;;;;2.50;1.70;;;2.40;99.90;;;;;;5397575;26;19996;-52
2024/04/22 02:41:10;;;;;;;3.65;1.75;;;2.40;99.90;;;;;;5401415;26;20485;-51
2024/04/22 02:43:36;;;;;;;2.33;1.80;;;2.30;99.90;;;;;;5404127;26;20593;-49
2024/04/22 02:46:02;;;;;;;2.85;1.63;;;2.30;99.90;;;;;;5405059;26;19999;-49
2024/04/22 02:48:27;;;;;;;3.20;1.98;;;2.30;99.90;;;;;;5402943;26;20730;-48
2024/04/22 02:50:53;;;;;;;2.83;1.90;;;2.30;99.90;;;;;;5397908;26;20100;-49
2024/04/22 02:53:18;;;;;;;2.67;1.98;;;2.30;99.90;;;;;;5405031;26;20003;-49
2024/04/22 02:55:47;;;;;;;3.30;2.05;;;2.30;99.90;;;;;;5404773;26;20076;-51
2024/04/22 02:58:13;;;;;;;4.40;1.83;;;2.30;99.90;;;;;;5405730;26;19995;-51
2024/04/22 03:00:38;;;;;;;2.63;1.83;;;2.20;99.90;;;;;;5400816;26;20680;-50
2024/04/22 03:03:04;;;;;;;2.85;2.03;;;2.20;99.90;;;;;;5405971;26;20031;-49
2024/04/22 03:05:31;;;;;;;3.20;2.25;;;2.20;99.90;;;;;;5404297;26;20018;-49
2024/04/22 03:07:57;;;;;;;6.88;2.33;;;2.20;99.90;;;;;;5407050;26;20260;-50
2024/04/22 03:10:29;;;;;;;4.00;2.20;;;2.20;99.90;;;;;;5399644;26;20011;-50
2024/04/22 03:12:54;;;;;;;6.03;2.03;;;2.20;99.90;;;;;;5402633;26;19999;-54
2024/04/22 03:15:20;;;;;;;3.38;2.05;;;2.10;99.90;;;;;;5401820;26;20004;-48
2024/04/22 03:17:46;;;;;;;3.55;2.03;;;2.20;99.90;;;;;;5403348;26;19995;-51
2024/04/22 03:20:11;;;;;;;3.05;1.65;;;2.10;99.90;;;;;;5404893;26;20087;-51
2024/04/22 03:22:37;;;;;;;2.20;1.95;;;2.10;99.90;;;;;;5405042;26;19996;-51
2024/04/22 03:25:05;;;;;;;3.15;2.22;;;2.10;99.90;;;;;;5401539;26;20392;-51
2024/04/22 03:27:30;;;;;;;3.72;2.05;;;2.10;99.90;;;;;;5405405;26;20051;-48
2024/04/22 03:29:56;;;;;;;3.05;2.08;;;2.00;99.90;;;;;;5400631;26;20010;-48
2024/04/22 03:32:21;;;;;;;3.45;2.08;;;2.00;99.90;;;;;;5372066;26;19999;-52
2024/04/22 03:34:47;;;;;;;4.03;1.92;;;1.90;99.90;;;;;;5401521;26;20607;-49
2024/04/22 03:37:12;;;;;;;5.30;2.10;;;1.90;99.90;;;;;;5400222;26;19996;-49
2024/04/22 03:39:38;;;;;;;3.15;2.08;;;1.90;99.90;;;;;;5403945;26;20347;-50
2024/04/22 03:42:03;;;;;;;5.45;2.53;;;1.90;99.90;;;;;;5409524;26;20075;-48
2024/04/22 03:44:29;;;;;;;2.53;1.85;;;1.90;99.90;;;;;;5404020;26;20003;-48
2024/04/22 03:49:51;;;;;;;3.03;1.98;;;1.90;99.90;;;;;;5402472;26;20053;-52
2024/04/22 03:52:18;;;;;;;2.83;1.90;;;1.90;99.90;;;;;;5396030;26;20360;-48
2024/04/22 03:54:44;;;;;;;4.45;2.10;;;1.90;99.90;;;;;;5406392;26;20073;-48
2024/04/22 03:57:10;;;;;;;2.95;2.08;;;1.90;99.90;;;;;;5408018;26;20028;-53
2024/04/22 03:59:36;;;;;;;3.28;2.28;;;2.00;99.90;;;;;;5407493;26;20008;-49
2024/04/22 04:02:01;;;;;;;4.75;2.45;;;2.00;99.90;;;;;;5404150;26;20472;-49
2024/04/22 04:04:27;;;;;;;3.45;2.42;;;2.00;99.90;;;;;;5404827;26;20069;-50
2024/04/22 04:06:53;;;;;;;2.35;2.10;;;2.00;99.90;;;;;;5404217;26;19992;-51
2024/04/22 04:09:20;;;;;;;4.55;2.85;;;2.00;99.90;;;;;;5404987;26;20008;-49
2024/04/22 04:11:47;;;;;;;2.10;1.92;;;2.00;99.90;;;;;;5403688;26;20011;-50
2024/04/22 04:14:14;;;;;;;5.03;2.03;;;2.00;99.90;;;;;;5399831;26;20001;-51
2024/04/22 04:16:40;;;;;;;3.40;2.55;;;2.00;99.90;;;;;;5401593;26;20440;-52
2024/04/22 04:19:05;;;;;;;2.58;1.90;;;1.90;99.90;;;;;;5403493;26;20000;-49
2024/04/22 04:21:31;;;;;;;9.10;2.53;;;1.90;99.90;;;;;;5400849;26;20011;-49
2024/04/22 04:23:56;;;;;;;2.88;2.40;;;1.90;99.90;;;;;;5402059;26;20077;-49
2024/04/22 04:26:22;;;;;;;3.30;2.17;;;1.90;99.90;;;;;;5399139;26;20102;-49
2024/04/22 04:28:48;;;;;;;6.38;2.55;;;1.90;99.90;;;;;;5396875;26;20092;-50
2024/04/22 04:31:14;;;;;;;3.35;2.05;;;2.00;99.90;;;;;;5406458;26;20064;-49
2024/04/22 04:33:39;;;;;;;4.82;2.30;;;2.00;99.90;;;;;;5397725;26;20011;-48
2024/04/22 04:36:07;;;;;;;3.75;2.35;;;1.90;99.90;;;;;;5405414;26;19999;-48
2024/04/22 04:38:33;;;;;;;1.85;1.40;;;1.90;99.90;;;;;;5400634;26;20007;-48
2024/04/22 04:40:59;;;;;;;3.47;2.20;;;1.90;99.90;;;;;;5403287;26;20487;-49
2024/04/22 04:43:26;;;;;;;2.28;2.08;;;1.90;99.90;;;;;;5399702;26;20014;-49
2024/04/22 04:45:52;;;;;;;3.10;1.92;;;1.90;99.90;;;;;;5397262;26;20381;-50
2024/04/22 04:48:18;;;;;;;3.85;2.20;;;2.00;99.90;;;;;;5403435;26;20011;-50
2024/04/22 04:50:44;;;;;;;3.42;1.92;;;2.00;99.90;;;;;;5398114;26;20456;-49
2024/04/22 04:53:11;;;;;;;2.35;1.70;;;1.90;99.90;;;;;;5399339;26;19996;-49
2024/04/22 04:55:36;;;;;;;1.65;1.55;;;2.00;99.90;;;;;;5405953;26;20010;-50
2024/04/22 04:58:02;;;;;;;2.28;1.90;;;2.00;99.90;;;;;;5404600;26;20011;-49
2024/04/22 05:00:27;;;;;;;4.65;2.33;;;2.00;99.90;;;;;;5401758;26;20068;-48
2024/04/22 05:02:53;;;;;;;3.10;2.30;;;2.10;99.90;;;;;;5399807;26;20359;-49
2024/04/22 05:05:18;;;;;;;3.10;2.10;;;2.10;99.90;;;;;;5400762;26;19995;-48
2024/04/22 05:07:46;;;;;;;5.70;2.65;;;2.10;99.90;;;;;;5397574;26;20008;-51
2024/04/22 05:10:12;;;;;;;3.85;2.13;;;2.10;99.90;;;;;;5406154;26;20490;-50
2024/04/22 05:12:38;;;;;;;3.63;2.30;;;2.20;99.90;;;;;;5406245;26;19994;-52
2024/04/22 05:15:04;;;;;;;2.63;2.35;;;2.20;99.90;;;;;;5403288;26;20090;-51
2024/04/22 05:17:30;;;;;;;3.30;2.55;;;2.30;99.90;;;;;;5403238;26;20053;-52
2024/04/22 05:19:55;;;;;;;3.55;2.40;;;2.30;99.90;;;;;;5403129;26;20063;-52
2024/04/22 05:22:21;;;;;;;4.28;2.45;;;2.30;99.90;;;;;;5400387;26;20068;-49
2024/04/22 05:24:47;;;;;;;3.85;2.90;;;2.40;99.90;;;;;;5401504;26;20031;-49
2024/04/22 05:27:12;;;;;;;6.40;2.75;;;2.40;99.90;;;;;;5399483;26;20059;-48
2024/04/22 05:29:38;;;;;;;5.75;2.85;;;2.40;99.90;;;;;;5402358;26;20013;-51
2024/04/22 05:32:04;;;;;;;3.22;2.50;;;2.40;99.90;;;;;;5400911;26;20004;-50
2024/04/22 05:37:14;;;;;;;2.88;2.10;;;2.60;99.90;;;;;;5402518;26;20081;-51
2024/04/22 05:39:39;;;;;;;2.65;2.10;;;2.60;99.90;;;;;;5401644;26;20401;-49
2024/04/22 05:42:06;;;;;;;2.70;2.30;;;2.70;99.90;;;;;;5396347;26;19999;-49
2024/04/22 05:44:31;;;;;;;3.60;2.53;;;2.70;99.90;;;;;;5397290;26;20078;-49
2024/04/22 05:46:57;;;;;;;2.30;2.10;;;2.80;99.90;;;;;;5393490;26;20048;-51
2024/04/22 05:49:25;;;;;;;2.50;2.10;;;2.80;99.90;;;;;;5403368;26;20342;-50
2024/04/22 05:51:50;;;;;;;2.30;1.83;;;2.90;99.90;;;;;;5401632;26;20015;-49
2024/04/22 05:54:16;;;;;;;2.75;2.13;;;2.90;99.90;;;;;;5401273;26;20079;-55
2024/04/22 05:56:43;;;;;;;3.92;2.13;;;3.00;99.90;;;;;;5401801;26;20015;-49
2024/04/22 05:59:10;;;;;;;2.33;2.08;;;3.00;99.90;;;;;;5403268;26;20018;-49
2024/04/22 06:01:36;;;;;;;3.53;2.63;;;3.00;99.90;;;;;;5404171;26;20477;-48
2024/04/22 06:04:04;;;;;;;3.33;2.90;;;3.10;99.90;;;;;;5406889;26;19999;-50
2024/04/22 06:06:30;;;;;;;5.10;3.60;;;3.10;99.90;;;;;;5405290;26;20014;-51
2024/04/22 06:08:56;;;;;;;3.30;2.42;;;3.20;99.90;;;;;;5400328;26;20467;-50
2024/04/22 06:11:22;;;;;;;5.28;4.70;;;3.20;99.90;;;;;;5401744;26;20035;-53
2024/04/22 06:13:47;;;;;;;5.20;3.92;;;3.30;99.90;;;;;;5404792;26;20014;-50
2024/04/22 06:16:25;;;;;;;;;;;;;;;;;;;;;
2024/04/22 06:18:51;;;;;;;2.95;2.40;;;3.40;99.90;;;;;;5404334;26;20367;-50
2024/04/22 06:21:16;;;;;;;4.30;2.05;;;3.40;99.90;;;;;;5406394;26;20008;-48
2024/04/22 06:23:46;;;;;;;2.00;1.77;;;3.40;99.90;;;;;;5405545;26;20024;-51
2024/04/22 06:26:13;;;;;;;1.98;1.65;;;3.50;99.90;;;;;;5399937;26;20007;-49
2024/04/22 06:28:39;;;;;;;4.28;1.80;;;3.60;99.90;;;;;;5399776;26;20023;-49
2024/04/22 06:31:04;;;;;;;2.70;2.20;;;3.60;99.90;;;;;;5405187;26;20043;-48
2024/04/22 06:33:30;;;;;;;3.55;1.88;;;3.70;99.90;;;;;;5404021;26;19996;-50
2024/04/22 06:35:55;;;;;;;4.07;2.35;;;3.70;99.90;;;;;;5403024;26;20484;-51
2024/04/22 06:38:21;;;;;;;3.67;2.15;;;3.80;99.90;;;;;;5406340;26;20035;-50
2024/04/22 06:40:47;;;;;;;2.35;1.70;;;3.90;99.90;;;;;;5405036;26;20014;-48
2024/04/22 06:43:13;;;;;;;2.63;1.85;;;4.00;99.90;;;;;;5404703;26;21039;-52
2024/04/22 06:45:39;;;;;;;2.97;1.98;;;4.10;99.90;;;;;;5404726;26;20003;-51
2024/04/22 06:48:05;;;;;;;2.20;1.48;;;4.20;99.90;;;;;;5400910;26;20021;-52
2024/04/22 06:50:31;;;;;;;2.78;1.92;;;4.20;99.90;;;;;;5402062;26;20011;-48
2024/04/22 06:52:56;;;;;;;1.90;1.50;;;4.30;99.90;;;;;;5405388;26;20004;-50
2024/04/22 06:55:22;;;;;;;3.35;1.52;;;4.40;99.90;;;;;;5397535;26;20507;-51
2024/04/22 06:57:48;;;;;;;4.32;1.52;;;4.50;99.90;;;;;;5405289;26;20589;-53
2024/04/22 07:00:13;;;;;;;1.55;1.17;;;4.50;99.90;;;;;;5409526;26;20018;-48
2024/04/22 07:02:39;;;;;;;1.20;0.90;;;4.60;99.90;;;;;;5401940;26;20639;-52
2024/04/22 07:05:05;;;;;;;1.17;1.08;;;4.70;99.90;;;;;;5400727;26;20004;-50
2024/04/22 07:07:31;;;;;;;2.10;1.25;;;4.80;99.90;;;;;;5409441;26;20061;-49
2024/04/22 07:09:57;;;;;;;2.13;1.17;;;4.90;99.90;;;;;;5401765;26;20046;-47
2024/04/22 07:12:23;;;;;;;1.58;0.82;;;5.00;99.90;;;;;;5404168;26;20463;-50
2024/04/22 07:14:49;;;;;;;1.40;1.02;;;5.00;99.90;;;;;;5407085;26;19992;-48
2024/04/22 07:17:14;;;;;;;0.70;0.70;;;5.00;99.90;;;;;;5406355;26;20011;-49
2024/04/22 07:19:40;;;;;;;1.73;0.85;;;5.00;99.90;;;;;;5406375;26;20003;-51
2024/04/22 07:22:07;;;;;;;2.33;1.17;;;5.00;99.90;;;;;;5401410;26;20129;-49
2024/04/22 07:24:32;;;;;;;1.50;1.13;;;5.00;99.90;;;;;;5398782;26;20005;-49
2024/04/22 07:26:58;;;;;;;4.68;0.80;;;5.10;99.90;;;;;;5401008;26;20610;-53
2024/04/22 07:29:24;;;;;;;1.25;0.70;;;5.10;99.90;;;;;;5406198;26;20011;-50
2024/04/22 07:31:50;;;;;;;0.88;0.70;;;5.10;99.90;;;;;;5401515;26;20003;-53
2024/04/22 07:34:16;;;;;;;1.30;0.90;;;5.10;99.90;;;;;;5405995;26;20009;-49
2024/04/22 07:36:58;;;;;;;1.25;1.05;;;5.20;99.90;;;;;;5400396;26;20468;-51
2024/04/22 07:39:25;;;;;;;1.45;0.88;;;5.20;99.90;;;;;;5405401;26;20041;-49
2024/04/22 07:41:51;;;;;;;1.65;1.02;;;5.30;99.90;;;;;;5397610;26;20015;-48
2024/04/22 07:44:16;;;;;;;3.72;0.70;;;5.40;99.90;;;;;;5400878;26;19999;-49
2024/04/22 07:46:44;;;;;;;1.48;0.70;;;5.50;99.90;;;;;;5400391;26;20031;-51
2024/04/22 07:49:10;;;;;;;1.27;0.73;;;5.60;99.90;;;;;;5406367;26;20463;-49
2024/04/22 07:51:38;;;;;;;1.13;0.82;;;5.70;99.90;;;;;;5397948;26;20004;-50
2024/04/22 07:54:04;;;;;;;2.13;1.00;;;5.90;99.90;;;;;;5405550;26;20023;-48
2024/04/22 07:56:30;;;;;;;0.82;0.80;;;6.00;99.90;;;;;;5397200;26;20000;-50
2024/04/22 07:58:56;;;;;;;1.85;1.13;;;6.10;99.90;;;;;;5400537;26;20498;-50
2024/04/22 08:01:22;;;;;;;0.70;0.60;;;6.20;99.90;;;;;;5402251;26;20014;-50
2024/04/22 08:03:48;;;;;;;1.27;0.70;;;6.40;99.90;;;;;;5406927;26;20071;-52
2024/04/22 08:06:19;;;;;;;1.92;0.70;;;6.60;99.90;;;;;;5399596;26;20000;-54
2024/04/22 08:08:45;;;;;;;3.22;1.20;;;6.70;99.90;;;;;;5400069;26;20445;-51
2024/04/22 08:11:11;;;;;;;0.93;0.60;;;6.90;99.90;;;;;;5403246;26;20004;-51
2024/04/22 08:13:36;;;;;;;0.70;0.70;;;7.00;99.90;;;;;;5402168;26;20450;-50
2024/04/22 08:16:02;;;;;;;3.35;1.23;;;7.20;99.90;;;;;;5402204;26;19995;-48
2024/04/22 08:18:29;;;;;;;1.10;0.93;;;7.50;99.90;;;;;;5400669;26;20018;-49
2024/04/22 08:20:54;;;;;;;1.02;0.90;;;7.80;99.90;;;;;;5400256;26;20023;-50
2024/04/22 08:23:23;;;;;;;2.25;0.85;;;8.00;99.90;;;;;;5397606;26;20344;-49
2024/04/22 08:25:49;;;;;;;2.30;1.02;;;8.10;99.90;;;;;;5405312;26;19995;-49
2024/04/22 08:28:15;;;;;;;2.05;0.88;;;8.00;98.10;;;;;;5399362;26;20081;-51
2024/04/22 08:30:40;;;;;;;1.58;0.93;;;8.10;97.60;;;;;;5400656;26;20007;-48
2024/04/22 08:33:06;;;;;;;2.65;0.90;;;8.10;99.90;;;;;;5402264;26;20014;-48
2024/04/22 08:35:31;;;;;;;2.53;0.88;;;8.30;98.50;;;;;;5403264;26;20010;-50
2024/04/22 08:37:57;;;;;;;1.13;1.00;;;8.40;99.40;;;;;;5399344;26;20003;-51
2024/04/22 08:40:22;;;;;;;2.42;1.05;;;8.60;99.90;;;;;;5396587;26;20042;-50
2024/04/22 08:42:48;;;;;;;1.23;0.90;;;8.70;99.90;;;;;;5404910;26;20000;-49
2024/04/22 08:45:14;;;;;;;1.38;0.80;;;8.60;98.80;;;;;;5406767;26;20571;-48
2024/04/22 08:47:41;;;;;;;2.20;1.30;;;8.60;99.90;;;;;;5409368;26;20423;-49
2024/04/22 08:50:07;;;;;;;1.17;1.00;;;8.60;97.40;;;;;;5399194;26;20417;-49
2024/04/22 08:52:33;;;;;;;3.35;1.20;;;8.40;97.80;;;;;;5403643;26;20003;-50
2024/04/22 08:54:59;;;;;;;1.30;1.00;;;8.50;99.10;;;;;;5400777;26;19996;-49
2024/04/22 08:57:24;;;;;;;3.97;1.30;;;8.50;99.40;;;;;;5401606;26;20027;-52
2024/04/22 08:59:50;;;;;;;1.75;1.35;;;8.60;98.30;;;;;;5403388;26;20007;-49
2024/04/22 09:02:16;;;;;;;1.77;0.93;;;8.70;99.60;;;;;;5401002;26;20022;-49
2024/04/22 09:04:44;;;;;;;2.40;1.10;;;8.90;99.90;;;;;;5396788;26;20046;-50
2024/04/22 09:07:16;;;;;;;0.93;0.73;;;9.10;99.80;;;;;;5402129;26;20019;-50
2024/04/22 09:09:46;;;;;;;1.77;1.30;;;9.10;99.40;;;;;;5398741;26;20015;-48
2024/04/22 09:12:18;;;;;;;1.55;1.20;;;9.00;96.80;;;;;;5401264;26;19992;-49
2024/04/22 09:14:44;;;;;;;1.90;1.02;;;9.10;97.80;;;;;;5399657;26;20031;-49
2024/04/22 09:17:18;;;;;;;1.58;1.38;;;9.00;99.10;;;;;;5400554;26;19996;-50
2024/04/22 09:19:47;;;;;;;1.25;1.15;;;8.80;96.60;;;;;;5405191;26;20064;-51
2024/04/22 09:22:15;;;;;;;1.40;1.13;;;8.60;98.60;;;;;;5406435;26;19992;-50
2024/04/22 09:24:42;;;;;;;1.83;1.10;;;8.80;98.10;;;;;;5398564;26;20003;-52
2024/04/22 09:27:07;;;;;;;1.65;1.10;;;8.90;97.00;;;;;;5396194;26;20000;-51
2024/04/22 09:29:40;;;;;;;2.85;1.30;;;9.20;99.90;;;;;;5400420;26;20952;-49
2024/04/22 09:32:15;;;;;;;1.35;1.25;;;9.20;98.60;;;;;;5407495;26;20072;-51
2024/04/22 09:34:42;;;;;;;1.48;1.35;;;9.00;95.50;;;;;;5402619;26;20000;-53
2024/04/22 09:37:08;;;;;;;1.30;1.05;;;8.40;95.50;;;;;;5396326;26;20829;-52
2024/04/22 09:39:35;;;;;;;2.15;1.55;;;7.80;95.50;;;;;;5405258;26;20008;-50
2024/04/22 09:42:02;;;;;;;2.38;1.02;;;7.60;95.50;;;;;;5400505;26;20008;-49
2024/04/22 09:44:30;;;;;;;1.55;1.17;;;7.70;97.70;;;;;;5397743;26;20004;-54
2024/04/22 09:46:56;;;;;;;0.80;0.80;;;7.80;96.50;;;;;;5398647;26;20028;-51
2024/04/22 09:49:24;;;;;;;2.35;1.55;;;8.10;98.90;;;;;;5389278;26;20008;-50
2024/04/22 09:51:52;;;;;;;2.25;1.45;;;8.40;99.90;;;;;;5400439;26;20031;-48
2024/04/22 09:54:17;;;;;;;2.38;1.63;;;8.50;98.20;;;;;;5400698;26;19996;-50
2024/04/22 09:56:45;;;;;;;3.05;1.50;;;8.50;97.80;;;;;;5401173;26;20014;-48
2024/04/22 09:59:11;;;;;;;2.90;1.55;;;8.50;99.10;;;;;;5407644;26;19996;-50
2024/04/22 10:01:37;;;;;;;2.03;1.67;;;8.70;98.60;;;;;;5394666;26;20560;-52
2024/04/22 10:04:03;;;;;;;2.90;1.48;;;8.60;97.10;;;;;;5401542;26;20025;-51
2024/04/22 10:06:29;;;;;;;1.98;1.73;;;8.70;96.80;;;;;;5398507;26;20000;-49
2024/04/22 10:08:54;;;;;;;4.60;1.90;;;8.60;98.40;;;;;;5394773;26;20030;-51
2024/04/22 10:11:22;;;;;;;1.83;1.73;;;8.80;99.90;;;;;;5397544;26;20471;-51
2024/04/22 10:13:47;;;;;;;2.33;2.03;;;8.90;99.80;;;;;;5398135;26;20010;-50
2024/04/22 10:16:14;;;;;;;2.42;1.63;;;9.00;99.90;;;;;;5412309;26;20014;-52
2024/04/22 10:18:48;;;;;;;4.22;1.95;;;9.00;99.90;;;;;;5398233;26;20000;-51
2024/04/22 10:21:14;;;;;;;1.83;1.52;;;8.70;97.40;;;;;;5406067;26;19991;-49
2024/04/22 10:23:40;;;;;;;2.20;1.85;;;8.70;99.20;;;;;;5401655;26;20388;-53
2024/04/22 10:26:19;;;;;;;2.22;1.80;;;8.60;98.80;;;;;;5400149;26;20010;-49
2024/04/22 10:28:46;;;;;;;2.13;1.58;;;8.80;99.50;;;;;;5403905;26;20352;-52
2024/04/22 10:31:21;;;;;;;1.65;1.13;;;8.70;96.20;;;;;;5397601;26;20855;-51
2024/04/22 10:33:48;;;;;;;2.30;1.45;;;8.80;98.00;;;;;;5398180;26;19995;-55
2024/04/22 10:36:14;;;;;;;2.95;1.83;;;8.90;97.00;;;;;;5400350;26;20468;-50
2024/04/22 10:38:39;;;;;;;2.38;1.90;;;9.00;96.50;;;;;;5400256;26;20019;-51
2024/04/22 10:41:06;;;;;;;2.38;1.80;;;8.80;96.70;;;;;;5403570;26;20023;-53
2024/04/22 10:43:31;;;;;;;3.10;1.73;;;8.50;99.90;;;;;;5402642;26;20018;-53
2024/04/22 10:45:57;;;;;;;4.93;1.90;;;8.20;99.90;;;;;;5402444;26;20742;-50
2024/04/22 10:48:24;;;;;;;2.30;1.60;;;7.80;99.90;;;;;;5397406;26;19996;-48
2024/04/22 10:50:50;;;;;;;3.92;1.65;;;7.30;99.90;;;;;;5395582;26;20685;-49
2024/04/22 10:53:15;;;;;;;2.72;2.05;;;7.10;99.90;;;;;;5400393;26;20027;-51
2024/04/22 10:55:41;;;;;;;2.35;1.30;;;6.90;99.90;;;;;;5403440;26;20342;-50
2024/04/22 10:58:06;;;;;;;2.40;1.92;;;7.00;99.90;;;;;;5402953;26;19996;-50
2024/04/22 11:00:32;;;;;;;3.38;1.70;;;7.10;99.90;;;;;;5397724;26;20007;-53
2024/04/22 11:03:01;;;;;;;2.50;1.92;;;7.00;99.90;;;;;;5410031;26;20010;-52
2024/04/22 11:05:27;;;;;;;2.50;1.77;;;7.00;99.90;;;;;;5405685;26;20018;-52
2024/04/22 11:07:53;;;;;;;2.28;1.70;;;7.00;99.90;;;;;;5405928;26;20003;-50
2024/04/22 11:10:20;;;;;;;9.23;2.33;;;6.90;99.90;;;;;;5408627;26;20209;-51
2024/04/22 11:12:47;;;;;;;3.67;2.35;;;7.00;99.90;;;;;;5401036;26;20074;-54
2024/04/22 11:15:12;;;;;;;2.17;1.98;;;7.00;99.90;;;;;;5399575;26;20043;-52
2024/04/22 11:17:38;;;;;;;2.22;1.80;;;6.90;99.90;;;;;;5402255;26;19995;-50
2024/04/22 11:20:09;;;;;;;2.00;1.80;;;6.90;99.90;;;;;;5406964;26;20008;-50
2024/04/22 11:22:36;;;;;;;3.60;2.35;;;6.70;99.90;;;;;;5392512;26;20489;-51
2024/04/22 11:25:03;;;;;;;2.70;1.92;;;6.60;99.90;;;;;;5400214;26;20059;-55
2024/04/22 11:27:31;;;;;;;2.53;2.33;;;6.70;99.90;;;;;;5405856;26;20011;-53
2024/04/22 11:29:57;;;;;;;2.95;2.40;;;6.80;99.90;;;;;;5399835;26;20051;-55
2024/04/22 11:32:24;;;;;;;2.25;2.05;;;6.90;99.90;;;;;;5405736;26;19999;-52
2024/04/22 11:34:50;;;;;;;3.13;2.15;;;6.90;99.90;;;;;;5403742;26;20468;-54
2024/04/22 11:37:17;;;;;;;2.97;2.28;;;6.80;99.90;;;;;;5403807;26;19997;-54
2024/04/22 11:39:42;;;;;;;2.60;2.17;;;6.90;99.90;;;;;;5401210;26;20028;-53
2024/04/22 11:42:08;;;;;;;6.03;2.00;;;7.00;99.90;;;;;;5402729;26;20121;-50
2024/04/22 11:44:33;;;;;;;2.30;2.10;;;7.10;99.90;;;;;;5404117;26;20011;-52
2024/04/22 11:46:59;;;;;;;2.58;1.90;;;7.20;99.90;;;;;;5402040;26;20003;-53
2024/04/22 11:49:24;;;;;;;5.10;2.58;;;7.30;99.90;;;;;;5405372;26;20040;-53
2024/04/22 11:51:50;;;;;;;3.30;2.30;;;7.60;99.90;;;;;;5402761;26;20631;-51
2024/04/22 11:54:16;;;;;;;2.35;1.95;;;7.80;99.90;;;;;;5402975;26;20459;-52
2024/04/22 11:56:41;;;;;;;2.13;1.92;;;7.80;99.90;;;;;;5401761;26;20012;-52
2024/04/22 11:59:07;;;;;;;2.83;2.03;;;7.70;99.90;;;;;;5406400;26;19999;-53
2024/04/22 12:01:33;;;;;;;2.50;2.05;;;7.60;99.90;;;;;;5406554;26;20081;-52
2024/04/22 12:04:00;;;;;;;2.17;1.98;;;7.70;99.90;;;;;;5406026;26;20116;-52
2024/04/22 12:06:28;;;;;;;2.53;2.10;;;7.60;99.90;;;;;;5401634;26;20056;-50
2024/04/22 12:08:53;;;;;;;3.13;2.05;;;7.50;99.90;;;;;;5401901;26;19996;-53
2024/04/22 12:11:19;;;;;;;2.92;2.25;;;7.40;99.90;;;;;;5403987;26;20015;-50
2024/04/22 12:13:44;;;;;;;2.75;2.00;;;7.30;99.90;;;;;;5400014;26;20056;-51
2024/04/22 12:16:10;;;;;;;3.08;2.35;;;7.10;99.90;;;;;;5402548;26;20332;-55
2024/04/22 12:18:36;;;;;;;3.70;2.40;;;7.20;99.90;;;;;;5402140;26;20347;-50
2024/04/22 12:21:01;;;;;;;2.67;2.00;;;7.30;99.90;;;;;;5406641;26;19999;-53
2024/04/22 12:23:27;;;;;;;3.38;2.40;;;7.40;99.90;;;;;;5403256;26;20274;-50
2024/04/22 12:25:56;;;;;;;2.45;2.25;;;7.50;99.90;;;;;;5400579;26;20040;-51
2024/04/22 12:28:22;;;;;;;2.80;2.30;;;7.50;99.90;;;;;;5400100;26;20011;-51
2024/04/22 12:30:51;;;;;;;2.13;1.92;;;7.70;99.90;;;;;;5398933;26;19996;-50
2024/04/22 12:33:19;;;;;;;2.40;2.17;;;7.70;99.90;;;;;;5401417;26;20015;-53
2024/04/22 12:35:45;;;;;;;3.17;2.58;;;7.80;99.90;;;;;;5399925;26;20010;-51
2024/04/22 12:38:10;;;;;;;2.20;1.98;;;7.80;99.90;;;;;;5398677;26;19999;-50
2024/04/22 12:40:36;;;;;;;2.55;1.90;;;7.90;99.90;;;;;;5400574;26;19995;-55
2024/04/22 12:43:02;;;;;;;2.22;1.88;;;8.00;99.90;;;;;;5404602;26;20083;-52
2024/04/22 12:45:28;;;;;;;1.90;1.70;;;8.10;99.90;;;;;;5401604;26;20031;-56
2024/04/22 12:50:45;;;;;;;2.35;1.27;;;8.10;99.90;;;;;;5403159;26;20007;-58
2024/04/22 12:53:11;;;;;;;1.50;1.30;;;8.20;99.90;;;;;;5401239;26;20578;-51
2024/04/22 12:55:36;;;;;;;1.77;1.35;;;8.30;99.90;;;;;;5404579;26;19999;-53
2024/04/22 12:58:02;;;;;;;5.75;2.10;;;8.40;99.90;;;;;;5407124;26;19998;-50
2024/04/22 13:00:28;;;;;;;3.53;1.70;;;8.10;99.90;;;;;;5403096;26;20015;-51
2024/04/22 13:02:54;;;;;;;2.95;1.75;;;7.80;99.90;;;;;;5404631;26;19995;-51
2024/04/22 13:05:20;;;;;;;1.63;1.50;;;7.30;99.90;;;;;;5401941;26;19999;-55
2024/04/22 13:07:46;;;;;;;3.55;2.40;;;7.00;99.90;;;;;;5403454;26;20583;-50
2024/04/22 13:10:11;;;;;;;2.40;1.77;;;6.80;99.90;;;;;;5406557;26;20011;-51